Time;durP1;ratioP1;P1;durP2;ratioP2;P2;SDS_P1;SDS_P2;PMS_P1;PMS_P2;Temp;Humidity;BMP_temperature;BMP_pressure;BME280_temperature;BME280_humidity;BME280_pressure;Samples;Min_cycle;Max_cycle;Signal;HPM_P1;HPM_P2
2022/02/17 00:00:06;;;;;;;81.68;9.27;;;;;;;9.57;81.62;99095.63;4953413;28;20089;-72
2022/02/17 00:02:32;;;;;;;66.35;10.55;;;;;;;9.56;82.65;99102.22;4961886;28;20027;-72
2022/02/17 00:05:00;;;;;;;75.43;8.65;;;;;;;9.59;82.95;99096.16;4959872;28;20474;-73
2022/02/17 00:07:25;;;;;;;75.22;9.88;;;;;;;9.57;82.44;99097.56;4968077;28;20031;-72
2022/02/17 00:09:51;;;;;;;56.35;9.40;;;;;;;9.54;80.73;99096.22;4973506;28;20035;-75
2022/02/17 00:12:16;;;;;;;58.25;9.77;;;;;;;9.50;81.14;99125.19;4969721;28;20035;-74
2022/02/17 00:14:45;;;;;;;56.40;8.43;;;;;;;9.52;82.42;99112.06;4978331;28;20058;-76
2022/02/17 00:17:13;;;;;;;81.38;10.50;;;;;;;9.57;82.93;99125.66;4976619;28;20031;-76
2022/02/17 00:19:38;;;;;;;65.28;8.90;;;;;;;9.53;81.08;99124.59;4976939;28;20054;-74
2022/02/17 00:22:04;;;;;;;56.63;8.95;;;;;;;9.58;81.54;99115.56;4968768;28;20086;-76
2022/02/17 00:24:42;;;;;;;;;;;;;;;;;;;;;
2022/02/17 00:27:18;;;;;;;;;;;;;;;;;;;;;
2022/02/17 00:29:53;;;;;;;65.53;9.60;;;;;;;9.64;82.29;99135.38;4965139;28;20030;-76
2022/02/17 00:32:21;;;;;;;72.40;9.35;;;;;;;9.51;81.16;99161.50;4968416;28;20536;-75
2022/02/17 00:34:46;;;;;;;61.25;8.10;;;;;;;9.56;80.02;99170.44;4968346;28;20034;-75
2022/02/17 00:37:12;;;;;;;76.88;9.88;;;;;;;9.58;81.29;99142.84;4942018;28;20031;-78
2022/02/17 00:39:38;;;;;;;68.43;8.15;;;;;;;9.53;81.13;99146.44;4971955;28;20704;-75
2022/02/17 00:42:11;;;;;;;65.45;10.70;;;;;;;9.56;80.18;99181.34;4964031;28;20476;-76
2022/02/17 00:44:36;;;;;;;66.00;9.43;;;;;;;9.57;81.03;99163.06;4963291;28;20462;-76
2022/02/17 00:47:02;;;;;;;65.18;8.95;;;;;;;9.34;79.33;99154.53;4966991;28;20141;-76
2022/02/17 00:49:32;;;;;;;65.15;10.13;;;;;;;9.12;80.23;99203.31;4957550;28;20039;-74
2022/02/17 00:51:57;;;;;;;85.90;11.02;;;;;;;9.05;80.84;99179.09;4954462;28;20105;-73
2022/02/17 00:54:24;;;;;;;54.80;8.82;;;;;;;8.98;78.39;99181.34;4969841;28;20565;-71
2022/02/17 00:56:49;;;;;;;70.60;9.43;;;;;;;9.00;80.38;99176.44;4964937;28;20027;-73
2022/02/17 00:59:15;;;;;;;72.68;9.77;;;;;;;9.00;79.84;99203.69;4968966;28;20472;-72
2022/02/17 01:01:43;;;;;;;65.97;9.32;;;;;;;8.97;79.57;99177.00;4963813;28;20043;-72
2022/02/17 01:04:10;;;;;;;69.88;8.52;;;;;;;8.95;79.73;99181.91;4967441;28;20074;-71
2022/02/17 01:06:39;;;;;;;50.90;8.77;;;;;;;8.93;77.78;99187.66;4960034;28;20027;-72
2022/02/17 01:09:06;;;;;;;65.43;7.93;;;;;;;8.97;78.85;99190.66;4966412;28;20054;-73
2022/02/17 01:11:32;;;;;;;61.85;8.45;;;;;;;9.00;77.55;99209.97;4961116;28;20027;-73
2022/02/17 01:13:58;;;;;;;71.45;9.25;;;;;;;9.01;77.29;99205.31;4962219;28;20557;-71
2022/02/17 01:16:23;;;;;;;56.00;7.63;;;;;;;9.06;78.83;99218.91;4947984;28;20035;-73
2022/02/17 01:18:49;;;;;;;59.55;8.57;;;;;;;9.15;79.43;99233.56;4951016;28;20031;-71
2022/02/17 01:21:16;;;;;;;83.22;10.30;;;;;;;9.17;78.44;99223.19;4951541;28;20019;-71
2022/02/17 01:23:45;;;;;;;54.90;9.32;;;;;;;9.23;79.23;99238.41;4951647;28;20488;-72
2022/02/17 01:26:12;;;;;;;64.53;9.32;;;;;;;9.25;78.07;99233.47;4949827;28;20446;-71
2022/02/17 01:28:38;;;;;;;72.47;8.10;;;;;;;9.32;77.91;99232.34;4953384;28;20085;-74
2022/02/17 01:31:03;;;;;;;50.75;7.80;;;;;;;9.39;78.43;99251.94;4950457;28;20039;-72
2022/02/17 01:33:31;;;;;;;79.80;10.45;;;;;;;9.41;77.53;99247.00;4953632;29;20027;-72
2022/02/17 01:35:57;;;;;;;56.95;8.18;;;;;;;9.36;77.22;99247.84;4953833;28;20019;-72
2022/02/17 01:38:22;;;;;;;73.78;9.30;;;;;;;9.47;78.50;99245.84;4949847;28;20034;-72
2022/02/17 01:40:50;;;;;;;62.83;9.82;;;;;;;9.46;76.72;99252.38;4961622;28;20031;-71
2022/02/17 01:43:17;;;;;;;58.72;8.68;;;;;;;9.44;76.69;99247.22;4953587;28;20065;-73
2022/02/17 01:45:43;;;;;;;62.72;10.43;;;;;;;9.46;76.98;99252.38;4951468;28;20071;-73
2022/02/17 01:48:10;;;;;;;63.38;8.77;;;;;;;9.45;76.21;99261.69;4941039;28;20030;-73
2022/02/17 01:50:41;;;;;;;64.38;9.35;;;;;;;9.45;75.88;99264.41;4961283;28;20035;-72
2022/02/17 01:53:10;;;;;;;60.42;8.13;;;;;;;9.44;74.84;99251.88;4949378;28;20019;-72
2022/02/17 01:55:37;;;;;;;63.85;8.82;;;;;;;9.46;76.80;99257.84;4947479;28;20083;-72
2022/02/17 01:58:03;;;;;;;64.32;8.60;;;;;;;9.50;76.36;99255.38;4947153;28;20030;-71
2022/02/17 02:00:30;;;;;;;48.78;7.00;;;;;;;9.44;74.03;99262.78;4951625;28;20035;-73
2022/02/17 02:02:55;;;;;;;76.07;9.90;;;;;;;9.36;73.66;99277.03;4952311;28;20028;-72
2022/02/17 02:05:21;;;;;;;68.97;8.63;;;;;;;9.25;72.55;99249.84;4936066;28;20062;-72
2022/02/17 02:07:47;;;;;;;57.60;7.05;;;;;;;9.18;72.85;99260.25;4939988;28;20127;-73
2022/02/17 02:10:12;;;;;;;51.53;7.35;;;;;;;9.14;72.79;99267.41;4941665;28;20363;-73
2022/02/17 02:12:38;;;;;;;62.92;8.35;;;;;;;9.08;73.26;99268.53;4952570;28;20078;-71
2022/02/17 02:15:04;;;;;;;43.95;7.75;;;;;;;9.02;72.75;99277.84;4930750;29;20059;-71
2022/02/17 02:17:30;;;;;;;57.25;7.68;;;;;;;8.97;72.51;99286.88;4952418;28;20054;-72
2022/02/17 02:19:59;;;;;;;46.88;7.15;;;;;;;8.89;70.93;99301.09;4941003;29;20058;-72
2022/02/17 02:22:26;;;;;;;47.83;8.05;;;;;;;8.86;70.97;99318.88;4952088;28;20026;-71
2022/02/17 02:24:54;;;;;;;51.28;8.10;;;;;;;8.86;72.01;99302.50;4940637;28;20019;-71
2022/02/17 02:27:21;;;;;;;60.85;8.93;;;;;;;8.89;71.38;99303.81;4948779;28;20437;-72
2022/02/17 02:29:46;;;;;;;51.55;7.65;;;;;;;8.88;71.29;99319.38;4959632;28;20489;-71
2022/02/17 02:32:12;;;;;;;61.67;8.50;;;;;;;8.87;71.81;99303.31;4951634;28;20035;-71
2022/02/17 02:34:38;;;;;;;64.15;7.88;;;;;;;8.85;72.69;99317.22;4959948;28;20175;-71
2022/02/17 02:37:04;;;;;;;48.67;8.18;;;;;;;8.90;73.36;99319.09;4956323;28;20473;-71
2022/02/17 02:39:31;;;;;;;38.55;6.97;;;;;;;8.93;72.62;99306.81;4968596;28;20046;-70
2022/02/17 02:41:57;;;;;;;55.70;7.35;;;;;;;8.99;71.70;99313.88;4952747;28;20038;-73
2022/02/17 02:44:22;;;;;;;41.70;6.15;;;;;;;9.05;72.14;99293.63;4948079;28;20382;-72
2022/02/17 02:46:48;;;;;;;43.95;7.72;;;;;;;9.09;72.36;99311.06;4951917;28;20118;-73
2022/02/17 02:49:13;;;;;;;41.10;5.90;;;;;;;9.21;74.02;99336.09;4948522;28;20404;-73
2022/02/17 02:51:39;;;;;;;57.38;7.82;;;;;;;9.24;72.84;99329.22;4956598;28;20126;-71
2022/02/17 02:54:04;;;;;;;50.83;8.38;;;;;;;9.17;73.34;99315.94;4960847;28;20024;-71
2022/02/17 02:56:30;;;;;;;52.70;7.93;;;;;;;9.14;72.54;99307.47;4948772;28;20033;-72
2022/02/17 02:58:55;;;;;;;49.20;8.13;;;;;;;9.14;73.93;99335.59;4958141;28;20035;-73
2022/02/17 03:01:21;;;;;;;41.28;7.22;;;;;;;9.16;74.46;99321.66;4921413;28;20039;-70
2022/02/17 03:03:49;;;;;;;51.03;6.68;;;;;;;9.06;73.04;99338.91;4954899;28;20398;-71
2022/02/17 03:06:15;;;;;;;64.35;7.53;;;;;;;9.00;73.39;99361.84;4963398;28;20045;-72
2022/02/17 03:08:41;;;;;;;49.75;7.40;;;;;;;9.02;73.98;99351.47;4936159;28;20045;-71
2022/02/17 03:11:07;;;;;;;41.40;5.90;;;;;;;9.00;74.08;99353.69;4960744;28;20122;-72
2022/02/17 03:13:32;;;;;;;47.55;5.53;;;;;;;8.99;74.44;99371.13;4956846;28;20019;-70
2022/02/17 03:15:58;;;;;;;41.38;6.25;;;;;;;8.99;74.47;99352.84;4971963;28;20458;-72
2022/02/17 03:18:23;;;;;;;42.95;6.82;;;;;;;9.02;74.68;99376.00;4965790;28;20039;-72
2022/02/17 03:20:49;;;;;;;28.65;5.35;;;;;;;9.00;73.50;99356.41;4973091;28;20045;-71
2022/02/17 03:23:14;;;;;;;31.92;5.25;;;;;;;9.01;74.02;99371.66;4970050;28;20050;-72
2022/02/17 03:25:40;;;;;;;45.67;5.32;;;;;;;8.99;72.94;99387.50;4969504;28;20034;-71
2022/02/17 03:28:05;;;;;;;34.03;5.13;;;;;;;8.94;72.47;99374.69;4961034;28;20031;-72
2022/02/17 03:30:31;;;;;;;35.20;5.53;;;;;;;8.89;72.36;99378.28;4945322;28;20559;-72
2022/02/17 03:32:57;;;;;;;41.63;5.13;;;;;;;8.85;72.71;99381.84;4964401;28;20030;-72
2022/02/17 03:35:23;;;;;;;44.47;5.80;;;;;;;8.85;72.35;99392.75;4961654;28;20036;-74
2022/02/17 03:37:48;;;;;;;42.17;6.55;;;;;;;8.82;73.06;99375.03;4971669;28;20037;-72
2022/02/17 03:40:14;;;;;;;37.42;5.25;;;;;;;8.79;72.29;99372.88;4958870;28;20119;-71
2022/02/17 03:42:40;;;;;;;21.95;4.38;;;;;;;8.80;72.83;99382.66;4953759;28;20031;-73
2022/02/17 03:45:06;;;;;;;45.13;6.32;;;;;;;8.81;73.16;99417.00;4951463;28;20381;-72
2022/02/17 03:47:32;;;;;;;35.13;5.38;;;;;;;8.77;72.59;99380.50;4951781;28;20129;-73
2022/02/17 03:49:57;;;;;;;31.42;5.72;;;;;;;8.77;73.25;99391.41;4959179;28;20690;-70
2022/02/17 03:52:23;;;;;;;35.05;5.60;;;;;;;8.78;73.61;99408.59;4967217;28;20030;-71
2022/02/17 03:54:48;;;;;;;38.53;5.05;;;;;;;8.77;73.57;99402.31;4939344;28;20027;-72
2022/02/17 03:57:14;;;;;;;45.08;6.63;;;;;;;8.80;73.65;99418.09;4977105;28;20496;-72
2022/02/17 03:59:39;;;;;;;37.40;5.15;;;;;;;8.75;72.18;99409.97;4976169;28;20042;-73
2022/02/17 04:02:05;;;;;;;34.15;6.22;;;;;;;8.71;72.18;99430.69;4974747;28;20117;-72
2022/02/17 04:04:30;;;;;;;50.63;6.10;;;;;;;8.66;72.17;99436.13;4951786;28;20050;-73
2022/02/17 04:06:56;;;;;;;34.65;5.32;;;;;;;8.66;71.74;99455.22;4957725;28;20027;-72
2022/02/17 04:09:21;;;;;;;44.90;7.75;;;;;;;8.66;72.33;99439.69;4957764;28;20031;-71
2022/02/17 04:11:46;;;;;;;31.70;5.65;;;;;;;8.64;72.45;99430.16;4935141;28;20029;-72
2022/02/17 04:14:12;;;;;;;45.42;4.93;;;;;;;8.62;71.75;99451.44;4939881;28;20059;-72
2022/02/17 04:16:37;;;;;;;33.78;5.50;;;;;;;8.60;72.13;99453.59;4970845;28;20442;-71
2022/02/17 04:19:03;;;;;;;29.77;5.03;;;;;;;8.56;71.57;99462.34;4968445;28;20404;-71
2022/02/17 04:21:31;;;;;;;36.03;5.47;;;;;;;8.55;72.35;99444.34;4969842;28;20046;-74
2022/02/17 04:23:58;;;;;;;28.55;4.63;;;;;;;8.53;71.60;99440.28;4969530;28;20162;-72
2022/02/17 04:26:23;;;;;;;26.40;3.90;;;;;;;8.54;71.49;99452.78;4953888;28;20041;-71
2022/02/17 04:28:49;;;;;;;40.60;5.25;;;;;;;8.51;71.34;99454.19;4974166;28;20023;-73
2022/02/17 04:31:15;;;;;;;33.25;5.07;;;;;;;8.45;72.07;99471.63;4975963;28;20031;-72
2022/02/17 04:33:45;;;;;;;19.60;4.82;;;;;;;8.44;71.93;99480.03;4982101;28;20042;-72
2022/02/17 04:36:11;;;;;;;38.75;5.45;;;;;;;8.39;72.04;99495.28;4965140;28;20047;-71
2022/02/17 04:38:36;;;;;;;29.80;4.57;;;;;;;8.42;72.47;99514.91;4989338;28;20090;-72
2022/02/17 04:43:46;;;;;;;44.20;5.38;;;;;;;8.42;72.60;99493.13;4982909;28;20033;-71
2022/02/17 04:46:12;;;;;;;30.92;5.70;;;;;;;8.43;71.77;99522.81;4943557;28;20026;-72
2022/02/17 04:48:39;;;;;;;27.92;5.32;;;;;;;8.44;71.71;99504.56;4974917;28;20030;-72
2022/02/17 04:51:04;;;;;;;37.38;4.68;;;;;;;8.44;71.95;99527.22;4964824;28;20034;-71
2022/02/17 04:53:31;;;;;;;41.60;5.95;;;;;;;8.49;72.07;99529.91;4964034;28;20027;-70
2022/02/17 04:55:56;;;;;;;34.58;4.07;;;;;;;8.51;71.85;99527.75;4956866;28;20031;-71
2022/02/17 04:58:23;;;;;;;16.80;3.33;;;;;;;8.50;71.27;99528.84;4971340;28;20367;-71
2022/02/17 05:00:49;;;;;;;30.95;6.03;;;;;;;8.52;71.49;99515.75;4968759;28;20027;-72
2022/02/17 05:03:14;;;;;;;22.63;4.00;;;;;;;8.53;71.92;99530.22;4970415;28;20038;-71
2022/02/17 05:05:40;;;;;;;26.48;4.43;;;;;;;8.50;72.72;99534.28;4965813;28;20469;-72
2022/02/17 05:08:05;;;;;;;27.35;4.50;;;;;;;8.49;74.02;99554.44;4967383;28;20049;-72
2022/02/17 05:10:31;;;;;;;31.45;4.80;;;;;;;8.42;74.73;99555.78;4966110;28;20791;-71
2022/02/17 05:12:56;;;;;;;49.42;5.35;;;;;;;8.26;74.65;99544.06;4967490;28;20033;-73
2022/02/17 05:15:22;;;;;;;41.30;4.82;;;;;;;8.19;75.96;99555.22;4934189;29;20054;-72
2022/02/17 05:17:48;;;;;;;34.80;4.88;;;;;;;8.14;75.39;99569.66;4957037;28;20532;-72
2022/02/17 05:20:14;;;;;;;31.00;4.93;;;;;;;8.11;77.26;99564.75;4946647;28;20303;-73
2022/02/17 05:22:44;;;;;;;29.30;4.20;;;;;;;8.09;78.80;99560.66;4971451;28;20027;-72
2022/02/17 05:25:10;;;;;;;40.45;5.85;;;;;;;8.01;78.69;99564.75;4976375;28;20548;-72
2022/02/17 05:27:36;;;;;;;36.38;5.45;;;;;;;7.96;78.49;99583.81;4957893;28;20073;-72
2022/02/17 05:30:02;;;;;;;43.45;5.93;;;;;;;7.92;78.83;99577.25;4940344;28;20062;-72
2022/02/17 05:32:28;;;;;;;35.33;5.25;;;;;;;7.91;78.66;99586.50;4957875;28;20449;-71
2022/02/17 05:34:53;;;;;;;48.72;6.10;;;;;;;7.89;78.96;99584.06;4962826;28;20113;-70
2022/02/17 05:37:19;;;;;;;32.90;4.30;;;;;;;7.92;78.61;99578.06;4947010;28;20493;-70
2022/02/17 05:39:44;;;;;;;36.65;4.65;;;;;;;8.00;79.51;99579.44;4957907;28;20082;-69
2022/02/17 05:42:12;;;;;;;43.40;5.38;;;;;;;8.05;79.14;99595.81;4954364;28;20469;-71
2022/02/17 05:44:37;;;;;;;37.25;5.57;;;;;;;8.11;80.45;99602.88;4963447;28;20023;-70
2022/02/17 05:47:03;;;;;;;20.70;3.95;;;;;;;8.05;79.65;99598.53;4956461;28;20118;-71
2022/02/17 05:49:29;;;;;;;36.40;5.15;;;;;;;7.94;79.14;99603.09;4976750;28;20031;-70
2022/02/17 05:51:54;;;;;;;50.53;5.97;;;;;;;7.85;80.08;99600.09;4983634;28;20054;-71
2022/02/17 05:54:20;;;;;;;23.15;3.40;;;;;;;7.76;80.78;99596.25;4982912;28;20027;-70
2022/02/17 05:56:45;;;;;;;32.55;5.07;;;;;;;7.70;80.94;99608.22;4968643;28;20057;-68
2022/02/17 05:59:11;;;;;;;32.00;4.43;;;;;;;7.64;81.21;99604.66;4984324;28;20065;-71
2022/02/17 06:01:36;;;;;;;36.30;5.72;;;;;;;7.64;81.83;99610.09;4955274;28;20374;-70
2022/02/17 06:04:02;;;;;;;33.40;5.60;;;;;;;7.68;81.68;99615.81;4970126;28;20046;-70
2022/02/17 06:06:28;;;;;;;29.73;5.63;;;;;;;7.66;81.35;99618.81;4972495;28;20037;-71
2022/02/17 06:08:53;;;;;;;44.17;6.28;;;;;;;7.66;79.62;99620.72;4960923;28;20031;-70
2022/02/17 06:11:18;;;;;;;28.08;5.22;;;;;;;7.65;79.39;99633.53;4959360;28;20118;-70
2022/02/17 06:13:44;;;;;;;28.10;5.03;;;;;;;7.68;78.92;99633.00;4968685;28;20386;-70
2022/02/17 06:16:09;;;;;;;38.58;5.07;;;;;;;7.73;78.79;99634.91;4948584;28;20034;-72
2022/02/17 06:18:35;;;;;;;35.63;4.88;;;;;;;7.79;78.47;99639.28;4952180;28;20035;-70
2022/02/17 06:21:00;;;;;;;27.13;3.90;;;;;;;7.81;78.81;99626.22;4973346;28;20031;-71
2022/02/17 06:23:26;;;;;;;27.77;3.97;;;;;;;7.85;78.88;99654.53;4969968;28;20031;-70
2022/02/17 06:25:52;;;;;;;29.70;4.70;;;;;;;7.88;78.97;99669.53;4969649;28;20023;-70
2022/02/17 06:28:17;;;;;;;35.88;4.60;;;;;;;7.91;78.69;99668.19;4946783;28;20043;-69
2022/02/17 06:30:44;;;;;;;39.72;5.18;;;;;;;7.85;77.95;99673.59;4960801;28;20030;-70
2022/02/17 06:33:11;;;;;;;22.92;4.50;;;;;;;7.82;78.29;99682.28;4950769;28;20109;-70
2022/02/17 06:35:38;;;;;;;23.63;3.83;;;;;;;7.73;77.31;99673.00;4964088;28;20035;-71
2022/02/17 06:38:05;;;;;;;18.33;3.47;;;;;;;7.66;77.05;99721.41;4970846;28;20039;-70
2022/02/17 06:40:31;;;;;;;33.10;2.92;;;;;;;7.59;76.57;99685.44;4973632;28;20073;-69
2022/02/17 06:43:03;;;;;;;12.90;2.47;;;;;;;7.54;76.37;99704.47;4947072;28;20398;-70
2022/02/17 06:45:29;;;;;;;13.93;2.63;;;;;;;7.48;76.74;99699.00;4963823;28;20026;-70
2022/02/17 06:47:55;;;;;;;20.45;3.58;;;;;;;7.45;77.13;99694.09;4976905;28;20031;-70
2022/02/17 06:50:21;;;;;;;21.73;2.22;;;;;;;7.40;77.03;99706.84;4937939;28;20478;-69
2022/02/17 06:52:47;;;;;;;28.33;3.88;;;;;;;7.34;77.26;99708.69;4967558;28;20022;-71
2022/02/17 06:55:12;;;;;;;17.35;2.90;;;;;;;7.32;77.52;99710.88;4973861;28;21146;-70
2022/02/17 06:57:39;;;;;;;27.40;3.45;;;;;;;7.25;77.78;99724.69;4963939;28;20540;-70
2022/02/17 07:00:06;;;;;;;20.63;2.38;;;;;;;7.22;78.62;99722.50;4968865;28;20541;-70
2022/02/17 07:02:33;;;;;;;22.50;2.28;;;;;;;7.18;78.33;99764.06;4972881;28;20456;-69
2022/02/17 07:05:01;;;;;;;23.58;2.45;;;;;;;7.13;79.14;99767.56;4951224;28;20077;-70
2022/02/17 07:07:26;;;;;;;27.77;2.95;;;;;;;7.07;79.71;99764.00;4968979;28;20445;-71
2022/02/17 07:09:52;;;;;;;24.80;3.22;;;;;;;7.06;79.29;99775.94;4940875;28;20062;-73
2022/02/17 07:12:28;;;;;;;24.10;2.60;;;;;;;6.93;79.07;99768.22;4938153;28;20058;-76
2022/02/17 07:15:01;;;;;;;16.45;2.30;;;;;;;6.93;79.05;99757.34;4958056;28;20078;-74
2022/02/17 07:17:26;;;;;;;11.50;1.38;;;;;;;6.93;79.04;99763.56;4956614;28;20450;-72
2022/02/17 07:19:52;;;;;;;20.95;2.65;;;;;;;6.89;79.31;99767.06;4956437;28;20031;-72
2022/02/17 07:22:19;;;;;;;14.13;1.70;;;;;;;6.89;79.58;99764.34;4949446;28;20576;-71
2022/02/17 07:24:45;;;;;;;20.98;2.58;;;;;;;6.84;79.09;99758.88;4936673;29;20051;-72
2022/02/17 07:27:10;;;;;;;16.52;2.20;;;;;;;6.81;79.21;99777.34;4937857;28;20114;-73
2022/02/17 07:29:36;;;;;;;22.38;2.03;;;;;;;6.81;80.29;99766.47;4936297;28;20179;-72
2022/02/17 07:32:07;;;;;;;27.85;2.85;;;;;;;6.77;79.94;99773.47;4957954;28;20043;-71
2022/02/17 07:34:33;;;;;;;31.98;3.72;;;;;;;6.79;80.54;99770.50;4963387;28;21861;-72
2022/02/17 07:36:58;;;;;;;12.32;2.53;;;;;;;6.82;80.48;99787.13;4948618;28;20027;-74
2022/02/17 07:39:24;;;;;;;14.80;2.22;;;;;;;6.80;80.91;99794.75;4948128;28;20043;-74
2022/02/17 07:41:49;;;;;;;26.42;3.08;;;;;;;6.81;80.61;99812.66;4937987;29;20505;-72
2022/02/17 07:44:15;;;;;;;18.65;3.17;;;;;;;6.82;80.55;99817.03;4944884;28;20036;-74
2022/02/17 07:46:40;;;;;;;22.52;3.25;;;;;;;6.79;81.27;99833.00;4948579;28;20035;-74
2022/02/17 07:49:06;;;;;;;18.60;3.25;;;;;;;6.87;81.06;99837.19;4951785;28;20039;-77
2022/02/17 07:51:33;;;;;;;19.25;3.17;;;;;;;6.95;81.82;99836.72;4963488;28;20115;-73
2022/02/17 07:54:18;;;;;;;19.25;2.88;;;;;;;7.06;80.91;99835.75;4960588;28;20156;-80
2022/02/17 07:56:46;;;;;;;19.33;2.80;;;;;;;7.21;80.78;99842.41;4953221;28;20032;-77
2022/02/17 07:59:11;;;;;;;21.45;2.58;;;;;;;7.29;81.06;99833.78;4949426;28;20050;-73
2022/02/17 08:01:39;;;;;;;16.23;2.78;;;;;;;7.22;79.18;99844.06;4949453;28;20036;-73
2022/02/17 08:04:05;;;;;;;25.48;2.58;;;;;;;7.21;79.41;99845.94;4964288;28;20087;-74
2022/02/17 08:06:33;;;;;;;28.40;3.30;;;;;;;7.20;79.02;99843.47;4934386;29;20038;-74
2022/02/17 08:08:59;;;;;;;29.25;2.63;;;;;;;7.26;79.27;99847.91;4960453;28;20118;-75
2022/02/17 08:11:37;;;;;;;18.23;2.25;;;;;;;7.38;79.33;99862.16;4948231;28;20121;-74
2022/02/17 08:14:02;;;;;;;13.38;2.78;;;;;;;7.36;78.22;99858.88;4955594;28;20043;-73
2022/02/17 08:16:28;;;;;;;30.17;2.65;;;;;;;7.46;77.96;99880.72;4954440;28;20125;-74
2022/02/17 08:18:57;;;;;;;19.38;3.15;;;;;;;7.43;77.25;99880.41;4950332;28;20049;-75
2022/02/17 08:21:22;;;;;;;22.23;2.85;;;;;;;7.50;77.96;99898.19;4948118;28;20031;-75
2022/02/17 08:23:49;;;;;;;15.57;2.70;;;;;;;7.53;76.64;99896.00;4951473;28;20050;-74
2022/02/17 08:26:14;;;;;;;18.40;2.38;;;;;;;7.56;76.83;99900.94;4947804;28;20054;-74
2022/02/17 08:28:40;;;;;;;15.25;2.42;;;;;;;7.58;76.94;99901.47;4964829;28;20046;-74
2022/02/17 08:31:05;;;;;;;24.60;2.83;;;;;;;7.67;77.84;99913.56;4952388;28;20031;-74
2022/02/17 08:33:31;;;;;;;20.05;2.65;;;;;;;7.69;75.87;99927.72;4944629;29;20102;-74
2022/02/17 08:35:56;;;;;;;12.77;2.58;;;;;;;7.86;75.52;99922.97;4954094;28;20099;-73
2022/02/17 08:38:30;;;;;;;14.10;2.65;;;;;;;8.23;75.41;99926.75;4947020;28;20389;-76
2022/02/17 08:40:56;;;;;;;11.00;1.67;;;;;;;8.39;73.28;99953.00;4932158;28;20043;-74
2022/02/17 08:43:21;;;;;;;20.30;2.22;;;;;;;8.60;73.55;99927.81;4956610;28;20031;-75
2022/02/17 08:45:47;;;;;;;12.13;2.08;;;;;;;9.00;72.33;99935.34;4959672;28;20525;-77
2022/02/17 08:48:12;;;;;;;10.70;1.48;;;;;;;9.34;70.31;99939.53;4951656;28;20496;-75
2022/02/17 08:50:40;;;;;;;11.75;1.92;;;;;;;9.64;68.74;99940.66;4954977;28;20027;-77
2022/02/17 08:53:06;;;;;;;11.85;1.17;;;;;;;9.66;65.96;99946.69;4944930;28;20070;-74
2022/02/17 08:55:32;;;;;;;4.95;1.13;;;;;;;9.91;67.17;99981.38;4948663;28;20055;-75
2022/02/17 08:57:58;;;;;;;11.35;2.33;;;;;;;10.05;65.50;99954.34;4948305;28;20577;-75
2022/02/17 09:00:23;;;;;;;5.97;1.25;;;;;;;10.35;67.24;99963.63;4969902;28;20451;-74
2022/02/17 09:02:49;;;;;;;5.70;1.52;;;;;;;10.64;65.45;99972.88;4949375;28;20085;-74
2022/02/17 09:05:14;;;;;;;6.30;1.48;;;;;;;10.94;65.05;99979.34;4962799;28;20031;-75
2022/02/17 09:07:40;;;;;;;5.80;1.92;;;;;;;10.90;64.01;99978.25;4950115;28;20027;-75
2022/02/17 09:10:06;;;;;;;11.60;1.55;;;;;;;10.86;64.75;99979.91;4955155;28;20354;-74
2022/02/17 09:12:34;;;;;;;12.77;1.75;;;;;;;11.03;65.15;99995.19;4948585;28;20035;-75
2022/02/17 09:14:59;;;;;;;9.93;1.60;;;;;;;11.25;62.27;100008.50;4952380;28;20078;-74
2022/02/17 09:17:29;;;;;;;10.30;1.98;;;;;;;11.28;62.61;100003.28;4946221;28;20410;-74
2022/02/17 09:19:54;;;;;;;12.65;1.58;;;;;;;11.66;62.33;99998.13;4948368;29;20094;-76
2022/02/17 09:22:20;;;;;;;7.93;2.10;;;;;;;11.86;61.15;99996.38;4949146;29;20031;-73
2022/02/17 09:24:45;;;;;;;12.55;1.80;;;;;;;11.96;59.43;100007.28;4948924;28;20031;-76
2022/02/17 09:27:11;;;;;;;5.55;1.35;;;;;;;12.08;58.03;100004.19;4952493;29;20101;-77
2022/02/17 09:29:37;;;;;;;8.15;1.38;;;;;;;12.13;59.29;100008.78;4946634;29;20038;-75
2022/02/17 09:32:03;;;;;;;15.48;1.65;;;;;;;12.39;57.45;100018.44;4964431;28;20509;-74
2022/02/17 09:34:29;;;;;;;9.60;1.25;;;;;;;12.45;57.30;100035.66;4964592;28;20060;-74
2022/02/17 09:36:55;;;;;;;6.57;0.90;;;;;;;12.42;55.68;100035.44;4953508;28;20053;-72
2022/02/17 09:39:21;;;;;;;9.18;1.30;;;;;;;12.67;57.42;100061.78;4951855;28;20034;-73
2022/02/17 09:41:47;;;;;;;8.13;1.50;;;;;;;12.79;55.96;100055.91;4951272;28;20488;-73
2022/02/17 09:44:13;;;;;;;6.30;1.52;;;;;;;12.93;56.21;100045.88;4945881;28;20063;-72
2022/02/17 09:46:44;;;;;;;6.13;1.10;;;;;;;13.44;57.16;100053.56;4957726;28;20109;-75
2022/02/17 09:49:14;;;;;;;3.80;0.77;;;;;;;13.64;53.12;100048.91;4944216;28;20377;-73
2022/02/17 09:51:40;;;;;;;3.90;1.00;;;;;;;13.77;52.29;100048.19;4962785;28;20023;-74
2022/02/17 09:54:05;;;;;;;3.80;1.33;;;;;;;13.99;53.79;100045.94;4954132;29;20016;-73
2022/02/17 09:56:31;;;;;;;6.07;1.23;;;;;;;14.57;54.32;100048.31;4942145;28;20051;-75
2022/02/17 09:58:56;;;;;;;3.10;1.13;;;;;;;14.92;51.54;100089.25;4939245;28;20036;-75
2022/02/17 10:01:26;;;;;;;5.18;1.48;;;;;;;14.74;48.78;100058.75;4933086;29;20042;-75
2022/02/17 10:04:11;;;;;;;7.05;1.45;;;;;;;14.12;49.23;100064.44;4948552;29;20032;-74
2022/02/17 10:06:42;;;;;;;5.07;1.42;;;;;;;13.65;51.29;100069.75;4957728;28;20039;-74
2022/02/17 10:09:14;;;;;;;10.30;1.65;;;;;;;13.67;51.43;100059.31;4950296;28;20049;-74
2022/02/17 10:11:41;;;;;;;10.02;3.38;;;;;;;13.89;51.06;100082.66;4962281;28;20023;-74
2022/02/17 10:14:12;;;;;;;2.83;1.50;;;;;;;14.42;53.44;100056.81;4957751;28;20420;-75
2022/02/17 10:17:08;;;;;;;5.63;1.20;;;;;;;14.66;50.05;100062.22;4960887;28;20731;-74
2022/02/17 10:19:34;;;;;;;10.27;1.77;;;;;;;14.83;49.38;100067.97;4948993;28;20469;-74
2022/02/17 10:22:04;;;;;;;2.88;1.42;;;;;;;15.22;48.98;100057.59;4971165;28;20090;-73
2022/02/17 10:24:40;;;;;;;4.15;1.80;;;;;;;15.54;48.95;100066.84;4968567;28;20419;-75
2022/02/17 10:27:12;;;;;;;8.82;1.92;;;;;;;15.76;47.41;100070.81;4970727;28;20027;-74
2022/02/17 10:29:38;;;;;;;3.40;1.23;;;;;;;15.95;45.79;100096.31;4969835;28;20350;-73
2022/02/17 10:32:09;;;;;;;2.95;1.17;;;;;;;16.23;46.80;100091.50;4941894;28;20034;-73
2022/02/17 10:34:35;;;;;;;8.50;1.30;;;;;;;16.87;48.46;100096.03;4961384;28;20023;-74
2022/02/17 10:37:00;;;;;;;8.10;1.13;;;;;;;17.08;45.23;100103.78;4961685;28;20023;-74
2022/02/17 10:39:26;;;;;;;3.92;1.27;;;;;;;17.49;47.42;100096.31;4964269;28;20093;-75
2022/02/17 10:41:54;;;;;;;6.55;1.42;;;;;;;18.00;47.57;100100.34;4972802;28;20031;-74
2022/02/17 10:44:22;;;;;;;5.78;1.58;;;;;;;18.06;45.01;100101.81;4969950;28;20027;-75
2022/02/17 10:46:47;;;;;;;5.95;1.65;;;;;;;18.01;45.62;100096.44;4964290;28;20065;-75
2022/02/17 10:49:19;;;;;;;3.85;1.88;;;;;;;18.09;43.34;100101.16;4962181;28;20042;-73
2022/02/17 10:52:26;;;;;;;12.65;2.08;;;;;;;18.30;44.42;100097.75;4978923;28;20027;-74
2022/02/17 10:55:13;;;;;;;6.43;1.35;;;;;;;19.22;49.05;100104.91;4985047;28;20555;-73
2022/02/17 10:57:41;;;;;;;6.82;1.45;;;;;;;19.50;43.40;100107.25;4973921;28;20022;-73
2022/02/17 11:00:19;;;;;;;10.57;1.27;;;;;;;20.04;43.46;100110.19;4977926;28;20019;-74
2022/02/17 11:02:47;;;;;;;2.20;1.00;;;;;;;19.92;40.20;100126.78;4975211;28;20461;-74
2022/02/17 11:05:13;;;;;;;6.65;0.88;;;;;;;20.12;41.48;100107.69;4958771;28;20031;-74
2022/02/17 11:07:41;;;;;;;5.38;1.25;;;;;;;19.69;39.14;100098.47;4959830;28;20431;-74
2022/02/17 11:10:08;;;;;;;9.68;1.65;;;;;;;19.29;40.30;100108.00;4972124;28;20037;-73
2022/02/17 11:12:35;;;;;;;6.80;0.80;;;;;;;19.80;47.59;100090.59;4971589;28;20117;-74
2022/02/17 11:15:05;;;;;;;11.30;1.83;;;;;;;20.25;42.09;100103.81;4967768;28;20047;-73
2022/02/17 11:17:37;;;;;;;6.20;1.38;;;;;;;19.87;39.72;100097.25;4973835;28;20036;-73
2022/02/17 11:20:20;;;;;;;17.42;2.33;;;;;;;19.56;37.78;100118.97;4970536;28;20041;-75
2022/02/17 11:22:49;;;;;;;5.43;1.42;;;;;;;19.05;39.88;100099.44;4958846;28;20134;-73
2022/02/17 11:25:16;;;;;;;9.45;2.03;;;;;;;19.38;44.06;100096.03;4966398;28;20038;-73
2022/02/17 11:27:58;;;;;;;7.25;1.67;;;;;;;20.28;47.34;100111.50;4960479;28;20185;-73
2022/02/17 11:30:30;;;;;;;6.43;1.50;;;;;;;20.67;43.64;100120.47;4971080;28;20031;-74
2022/02/17 11:33:29;;;;;;;11.93;1.80;;;;;;;20.53;40.35;100111.56;4968211;28;20031;-74
2022/02/17 11:36:19;;;;;;;9.80;1.75;;;;;;;20.44;39.78;100108.06;4971198;28;20484;-72